sensor_id;sensor_type;location;lat;lon;timestamp;P1;durP1;ratioP1;P2;durP2;ratioP2
46290;SDS011;32023;44.444;26.006;2023-01-26T00:02:22;19.17;;;10.68;;
46290;SDS011;32023;44.444;26.006;2023-01-26T00:04:48;23.55;;;12.13;;
46290;SDS011;32023;44.444;26.006;2023-01-26T00:07:37;21.15;;;11.13;;
46290;SDS011;32023;44.444;26.006;2023-01-26T00:10:06;23.95;;;12.07;;
46290;SDS011;32023;44.444;26.006;2023-01-26T00:12:33;25.20;;;11.15;;
46290;SDS011;32023;44.444;26.006;2023-01-26T00:18:10;21.63;;;10.60;;
46290;SDS011;32023;44.444;26.006;2023-01-26T00:20:37;20.30;;;10.25;;
46290;SDS011;32023;44.444;26.006;2023-01-26T00:23:03;23.52;;;10.52;;
46290;SDS011;32023;44.444;26.006;2023-01-26T00:25:29;20.17;;;10.43;;
46290;SDS011;32023;44.444;26.006;2023-01-26T00:27:56;17.92;;;10.43;;
46290;SDS011;32023;44.444;26.006;2023-01-26T00:32:57;23.13;;;11.13;;
46290;SDS011;32023;44.444;26.006;2023-01-26T00:35:23;19.77;;;11.23;;
46290;SDS011;32023;44.444;26.006;2023-01-26T00:37:49;22.33;;;10.43;;
46290;SDS011;32023;44.444;26.006;2023-01-26T00:40:17;23.75;;;11.35;;
46290;SDS011;32023;44.444;26.006;2023-01-26T00:42:43;18.40;;;10.27;;
46290;SDS011;32023;44.444;26.006;2023-01-26T00:45:10;22.00;;;10.98;;
46290;SDS011;32023;44.444;26.006;2023-01-26T00:47:38;18.80;;;10.85;;
46290;SDS011;32023;44.444;26.006;2023-01-26T00:50:10;22.63;;;11.35;;
46290;SDS011;32023;44.444;26.006;2023-01-26T00:52:37;18.40;;;9.52;;
46290;SDS011;32023;44.444;26.006;2023-01-26T00:55:06;25.17;;;11.43;;
46290;SDS011;32023;44.444;26.006;2023-01-26T00:57:34;19.17;;;10.80;;
46290;SDS011;32023;44.444;26.006;2023-01-26T01:02:42;26.55;;;12.60;;
46290;SDS011;32023;44.444;26.006;2023-01-26T01:07:50;21.85;;;10.95;;
46290;SDS011;32023;44.444;26.006;2023-01-26T01:10:26;22.02;;;11.75;;
46290;SDS011;32023;44.444;26.006;2023-01-26T01:12:52;19.13;;;9.85;;
46290;SDS011;32023;44.444;26.006;2023-01-26T01:15:20;21.88;;;10.80;;
46290;SDS011;32023;44.444;26.006;2023-01-26T01:17:47;23.80;;;11.18;;
46290;SDS011;32023;44.444;26.006;2023-01-26T01:20:16;26.33;;;12.38;;
46290;SDS011;32023;44.444;26.006;2023-01-26T01:25:14;25.02;;;12.38;;
46290;SDS011;32023;44.444;26.006;2023-01-26T01:27:58;25.83;;;12.68;;
46290;SDS011;32023;44.444;26.006;2023-01-26T01:33:16;25.50;;;11.93;;
46290;SDS011;32023;44.444;26.006;2023-01-26T01:35:42;19.08;;;11.02;;
46290;SDS011;32023;44.444;26.006;2023-01-26T01:38:10;21.80;;;11.30;;
46290;SDS011;32023;44.444;26.006;2023-01-26T01:40:41;24.25;;;11.75;;
46290;SDS011;32023;44.444;26.006;2023-01-26T01:43:10;20.75;;;11.02;;
46290;SDS011;32023;44.444;26.006;2023-01-26T01:45:43;26.25;;;12.18;;
46290;SDS011;32023;44.444;26.006;2023-01-26T01:48:19;18.33;;;10.00;;
46290;SDS011;32023;44.444;26.006;2023-01-26T01:50:54;23.42;;;12.50;;
46290;SDS011;32023;44.444;26.006;2023-01-26T01:53:25;27.52;;;12.70;;
46290;SDS011;32023;44.444;26.006;2023-01-26T01:56:00;25.70;;;13.10;;
46290;SDS011;32023;44.444;26.006;2023-01-26T01:58:37;24.60;;;13.15;;
46290;SDS011;32023;44.444;26.006;2023-01-26T02:01:07;22.83;;;11.75;;
46290;SDS011;32023;44.444;26.006;2023-01-26T02:03:36;26.00;;;12.73;;
46290;SDS011;32023;44.444;26.006;2023-01-26T02:08:39;21.73;;;12.07;;
46290;SDS011;32023;44.444;26.006;2023-01-26T02:11:19;20.08;;;9.93;;
46290;SDS011;32023;44.444;26.006;2023-01-26T02:13:51;19.23;;;10.27;;
46290;SDS011;32023;44.444;26.006;2023-01-26T02:16:18;25.83;;;12.07;;
46290;SDS011;32023;44.444;26.006;2023-01-26T02:18:45;28.17;;;12.68;;
46290;SDS011;32023;44.444;26.006;2023-01-26T02:21:18;25.38;;;13.50;;
46290;SDS011;32023;44.444;26.006;2023-01-26T02:26:34;31.70;;;14.88;;
46290;SDS011;32023;44.444;26.006;2023-01-26T02:29:03;32.80;;;16.33;;
46290;SDS011;32023;44.444;26.006;2023-01-26T02:34:07;30.23;;;15.30;;
46290;SDS011;32023;44.444;26.006;2023-01-26T02:36:44;31.55;;;15.18;;
46290;SDS011;32023;44.444;26.006;2023-01-26T02:39:46;28.90;;;14.15;;
46290;SDS011;32023;44.444;26.006;2023-01-26T02:42:18;31.45;;;14.65;;
46290;SDS011;32023;44.444;26.006;2023-01-26T02:45:05;34.25;;;15.73;;
46290;SDS011;32023;44.444;26.006;2023-01-26T02:47:33;33.38;;;16.00;;
46290;SDS011;32023;44.444;26.006;2023-01-26T02:52:32;32.90;;;16.20;;
46290;SDS011;32023;44.444;26.006;2023-01-26T03:00:40;34.22;;;17.73;;
46290;SDS011;32023;44.444;26.006;2023-01-26T03:03:14;31.38;;;17.42;;
46290;SDS011;32023;44.444;26.006;2023-01-26T03:05:43;31.23;;;16.40;;
46290;SDS011;32023;44.444;26.006;2023-01-26T03:08:10;33.60;;;16.70;;
46290;SDS011;32023;44.444;26.006;2023-01-26T03:10:36;36.55;;;17.63;;
46290;SDS011;32023;44.444;26.006;2023-01-26T03:13:03;34.28;;;16.20;;
46290;SDS011;32023;44.444;26.006;2023-01-26T03:15:30;34.78;;;16.70;;
46290;SDS011;32023;44.444;26.006;2023-01-26T03:18:08;32.08;;;17.10;;
46290;SDS011;32023;44.444;26.006;2023-01-26T03:20:54;34.00;;;17.67;;
46290;SDS011;32023;44.444;26.006;2023-01-26T03:23:40;37.15;;;18.52;;
46290;SDS011;32023;44.444;26.006;2023-01-26T03:26:28;34.58;;;16.98;;
46290;SDS011;32023;44.444;26.006;2023-01-26T03:29:13;36.47;;;18.48;;
46290;SDS011;32023;44.444;26.006;2023-01-26T03:31:39;37.15;;;18.00;;
46290;SDS011;32023;44.444;26.006;2023-01-26T03:34:12;36.13;;;18.27;;
46290;SDS011;32023;44.444;26.006;2023-01-26T03:36:39;34.03;;;17.83;;
46290;SDS011;32023;44.444;26.006;2023-01-26T03:39:11;35.95;;;18.58;;
46290;SDS011;32023;44.444;26.006;2023-01-26T03:41:58;34.40;;;18.02;;
46290;SDS011;32023;44.444;26.006;2023-01-26T03:44:43;40.60;;;19.00;;
46290;SDS011;32023;44.444;26.006;2023-01-26T03:47:30;32.75;;;16.55;;
46290;SDS011;32023;44.444;26.006;2023-01-26T03:50:16;38.53;;;19.05;;
46290;SDS011;32023;44.444;26.006;2023-01-26T03:53:17;38.03;;;17.77;;
46290;SDS011;32023;44.444;26.006;2023-01-26T03:56:04;41.17;;;18.52;;
46290;SDS011;32023;44.444;26.006;2023-01-26T03:58:46;37.95;;;19.17;;
46290;SDS011;32023;44.444;26.006;2023-01-26T04:01:15;37.83;;;18.38;;
46290;SDS011;32023;44.444;26.006;2023-01-26T04:03:49;36.10;;;18.90;;
46290;SDS011;32023;44.444;26.006;2023-01-26T04:06:36;37.40;;;18.80;;
46290;SDS011;32023;44.444;26.006;2023-01-26T04:09:21;34.22;;;17.92;;
46290;SDS011;32023;44.444;26.006;2023-01-26T04:11:48;38.60;;;19.30;;
46290;SDS011;32023;44.444;26.006;2023-01-26T04:14:15;37.08;;;18.33;;
46290;SDS011;32023;44.444;26.006;2023-01-26T04:17:00;34.75;;;18.05;;
46290;SDS011;32023;44.444;26.006;2023-01-26T04:19:46;41.40;;;19.08;;
46290;SDS011;32023;44.444;26.006;2023-01-26T04:22:38;37.60;;;17.52;;
46290;SDS011;32023;44.444;26.006;2023-01-26T04:25:09;39.30;;;19.70;;
46290;SDS011;32023;44.444;26.006;2023-01-26T04:27:38;34.35;;;17.73;;
46290;SDS011;32023;44.444;26.006;2023-01-26T04:30:05;42.63;;;18.42;;
46290;SDS011;32023;44.444;26.006;2023-01-26T04:35:10;41.72;;;21.52;;
46290;SDS011;32023;44.444;26.006;2023-01-26T04:37:46;39.13;;;18.05;;
46290;SDS011;32023;44.444;26.006;2023-01-26T04:40:26;38.63;;;19.40;;
46290;SDS011;32023;44.444;26.006;2023-01-26T04:42:52;39.28;;;18.73;;
46290;SDS011;32023;44.444;26.006;2023-01-26T04:45:19;35.03;;;18.83;;
46290;SDS011;32023;44.444;26.006;2023-01-26T04:47:47;37.13;;;17.88;;
46290;SDS011;32023;44.444;26.006;2023-01-26T04:50:14;33.55;;;17.20;;
46290;SDS011;32023;44.444;26.006;2023-01-26T04:52:41;38.00;;;17.55;;
46290;SDS011;32023;44.444;26.006;2023-01-26T04:55:09;37.70;;;19.30;;
46290;SDS011;32023;44.444;26.006;2023-01-26T04:57:35;37.83;;;18.90;;
46290;SDS011;32023;44.444;26.006;2023-01-26T05:02:46;40.47;;;17.77;;
46290;SDS011;32023;44.444;26.006;2023-01-26T05:05:12;38.70;;;18.63;;
46290;SDS011;32023;44.444;26.006;2023-01-26T05:07:38;33.72;;;17.88;;
46290;SDS011;32023;44.444;26.006;2023-01-26T05:10:05;37.83;;;18.08;;
46290;SDS011;32023;44.444;26.006;2023-01-26T05:12:44;35.38;;;17.77;;
46290;SDS011;32023;44.444;26.006;2023-01-26T05:15:13;36.38;;;18.27;;
46290;SDS011;32023;44.444;26.006;2023-01-26T05:17:39;36.63;;;17.20;;
46290;SDS011;32023;44.444;26.006;2023-01-26T05:20:06;35.63;;;17.50;;
46290;SDS011;32023;44.444;26.006;2023-01-26T05:22:32;47.42;;;19.33;;
46290;SDS011;32023;44.444;26.006;2023-01-26T05:25:01;41.00;;;19.17;;
46290;SDS011;32023;44.444;26.006;2023-01-26T05:27:27;38.53;;;18.40;;
46290;SDS011;32023;44.444;26.006;2023-01-26T05:29:54;40.15;;;19.00;;
46290;SDS011;32023;44.444;26.006;2023-01-26T05:32:25;35.42;;;18.10;;
46290;SDS011;32023;44.444;26.006;2023-01-26T05:37:25;36.92;;;19.40;;
46290;SDS011;32023;44.444;26.006;2023-01-26T05:39:52;46.08;;;19.63;;
46290;SDS011;32023;44.444;26.006;2023-01-26T05:42:21;41.58;;;20.10;;
46290;SDS011;32023;44.444;26.006;2023-01-26T05:44:48;41.28;;;18.05;;
46290;SDS011;32023;44.444;26.006;2023-01-26T05:47:16;43.25;;;19.05;;
46290;SDS011;32023;44.444;26.006;2023-01-26T05:49:45;36.55;;;15.93;;
46290;SDS011;32023;44.444;26.006;2023-01-26T05:52:21;34.50;;;18.00;;
46290;SDS011;32023;44.444;26.006;2023-01-26T05:54:47;38.67;;;18.85;;
46290;SDS011;32023;44.444;26.006;2023-01-26T05:57:29;39.90;;;19.73;;
46290;SDS011;32023;44.444;26.006;2023-01-26T06:00:03;41.70;;;20.17;;
46290;SDS011;32023;44.444;26.006;2023-01-26T06:05:07;41.60;;;20.08;;
46290;SDS011;32023;44.444;26.006;2023-01-26T06:10:00;37.47;;;19.05;;
46290;SDS011;32023;44.444;26.006;2023-01-26T06:12:26;39.03;;;19.15;;
46290;SDS011;32023;44.444;26.006;2023-01-26T06:14:56;40.10;;;17.70;;
46290;SDS011;32023;44.444;26.006;2023-01-26T06:17:22;42.75;;;20.15;;
46290;SDS011;32023;44.444;26.006;2023-01-26T06:20:06;41.67;;;20.23;;
46290;SDS011;32023;44.444;26.006;2023-01-26T06:22:33;37.40;;;19.25;;
46290;SDS011;32023;44.444;26.006;2023-01-26T06:25:00;37.15;;;18.40;;
46290;SDS011;32023;44.444;26.006;2023-01-26T06:34:15;33.88;;;17.63;;
46290;SDS011;32023;44.444;26.006;2023-01-26T06:36:46;36.00;;;18.60;;
46290;SDS011;32023;44.444;26.006;2023-01-26T06:39:12;35.05;;;19.23;;
46290;SDS011;32023;44.444;26.006;2023-01-26T06:41:42;38.10;;;18.25;;
46290;SDS011;32023;44.444;26.006;2023-01-26T06:44:09;36.78;;;19.27;;
46290;SDS011;32023;44.444;26.006;2023-01-26T06:46:35;35.53;;;19.02;;
46290;SDS011;32023;44.444;26.006;2023-01-26T06:49:03;36.55;;;18.85;;
46290;SDS011;32023;44.444;26.006;2023-01-26T06:54:04;43.88;;;19.42;;
46290;SDS011;32023;44.444;26.006;2023-01-26T07:23:32;35.58;;;17.95;;
46290;SDS011;32023;44.444;26.006;2023-01-26T07:26:03;35.58;;;17.65;;
46290;SDS011;32023;44.444;26.006;2023-01-26T07:28:31;33.45;;;17.05;;
46290;SDS011;32023;44.444;26.006;2023-01-26T07:31:00;37.53;;;18.73;;
46290;SDS011;32023;44.444;26.006;2023-01-26T07:33:31;40.30;;;19.52;;
46290;SDS011;32023;44.444;26.006;2023-01-26T07:35:58;41.35;;;17.42;;
46290;SDS011;32023;44.444;26.006;2023-01-26T07:41:13;34.85;;;18.58;;
46290;SDS011;32023;44.444;26.006;2023-01-26T07:43:44;39.47;;;18.05;;
46290;SDS011;32023;44.444;26.006;2023-01-26T08:01:47;41.47;;;19.85;;
46290;SDS011;32023;44.444;26.006;2023-01-26T08:04:43;40.83;;;18.85;;
46290;SDS011;32023;44.444;26.006;2023-01-26T08:07:26;41.50;;;18.67;;
46290;SDS011;32023;44.444;26.006;2023-01-26T08:09:54;38.53;;;17.73;;
46290;SDS011;32023;44.444;26.006;2023-01-26T08:12:23;39.38;;;18.33;;
46290;SDS011;32023;44.444;26.006;2023-01-26T08:14:54;45.17;;;19.25;;
46290;SDS011;32023;44.444;26.006;2023-01-26T08:17:21;36.08;;;18.05;;
46290;SDS011;32023;44.444;26.006;2023-01-26T08:19:48;38.90;;;18.92;;
46290;SDS011;32023;44.444;26.006;2023-01-26T08:22:16;39.40;;;18.40;;
46290;SDS011;32023;44.444;26.006;2023-01-26T08:24:43;39.75;;;18.98;;
46290;SDS011;32023;44.444;26.006;2023-01-26T08:27:09;36.05;;;18.55;;
46290;SDS011;32023;44.444;26.006;2023-01-26T08:29:47;33.47;;;18.17;;
46290;SDS011;32023;44.444;26.006;2023-01-26T08:32:21;39.25;;;18.60;;
46290;SDS011;32023;44.444;26.006;2023-01-26T08:35:10;43.88;;;19.48;;
46290;SDS011;32023;44.444;26.006;2023-01-26T08:37:55;41.22;;;20.48;;
46290;SDS011;32023;44.444;26.006;2023-01-26T08:40:22;43.08;;;20.20;;
46290;SDS011;32023;44.444;26.006;2023-01-26T08:42:51;39.03;;;18.88;;
46290;SDS011;32023;44.444;26.006;2023-01-26T08:45:20;39.10;;;19.23;;
46290;SDS011;32023;44.444;26.006;2023-01-26T08:47:52;40.08;;;17.52;;
46290;SDS011;32023;44.444;26.006;2023-01-26T08:50:22;39.47;;;19.65;;
46290;SDS011;32023;44.444;26.006;2023-01-26T08:52:58;36.35;;;16.25;;
46290;SDS011;32023;44.444;26.006;2023-01-26T08:55:27;37.28;;;17.33;;
46290;SDS011;32023;44.444;26.006;2023-01-26T08:58:03;33.33;;;16.80;;
46290;SDS011;32023;44.444;26.006;2023-01-26T09:00:32;38.08;;;18.50;;
46290;SDS011;32023;44.444;26.006;2023-01-26T09:03:16;38.10;;;18.52;;
46290;SDS011;32023;44.444;26.006;2023-01-26T09:05:43;36.83;;;17.98;;
46290;SDS011;32023;44.444;26.006;2023-01-26T09:08:09;34.92;;;16.98;;
46290;SDS011;32023;44.444;26.006;2023-01-26T09:10:38;37.85;;;18.60;;
46290;SDS011;32023;44.444;26.006;2023-01-26T09:13:07;38.22;;;18.55;;
46290;SDS011;32023;44.444;26.006;2023-01-26T09:15:35;41.08;;;17.83;;
46290;SDS011;32023;44.444;26.006;2023-01-26T09:18:03;33.85;;;16.77;;
46290;SDS011;32023;44.444;26.006;2023-01-26T09:20:29;39.58;;;18.27;;
46290;SDS011;32023;44.444;26.006;2023-01-26T09:22:56;39.10;;;19.08;;
46290;SDS011;32023;44.444;26.006;2023-01-26T09:25:22;38.78;;;19.17;;
46290;SDS011;32023;44.444;26.006;2023-01-26T09:27:49;45.20;;;20.08;;
46290;SDS011;32023;44.444;26.006;2023-01-26T09:36:41;44.47;;;19.08;;
46290;SDS011;32023;44.444;26.006;2023-01-26T09:39:07;43.78;;;21.15;;
46290;SDS011;32023;44.444;26.006;2023-01-26T09:44:25;45.60;;;21.20;;
46290;SDS011;32023;44.444;26.006;2023-01-26T09:47:04;36.75;;;20.35;;
46290;SDS011;32023;44.444;26.006;2023-01-26T09:49:47;49.33;;;20.80;;
46290;SDS011;32023;44.444;26.006;2023-01-26T09:52:32;53.95;;;20.48;;
46290;SDS011;32023;44.444;26.006;2023-01-26T09:55:18;41.58;;;19.67;;
46290;SDS011;32023;44.444;26.006;2023-01-26T09:58:00;43.60;;;19.77;;
46290;SDS011;32023;44.444;26.006;2023-01-26T10:03:33;49.17;;;20.15;;
46290;SDS011;32023;44.444;26.006;2023-01-26T10:06:26;48.00;;;22.02;;
46290;SDS011;32023;44.444;26.006;2023-01-26T10:09:00;46.10;;;20.17;;
46290;SDS011;32023;44.444;26.006;2023-01-26T10:11:32;43.85;;;21.30;;
46290;SDS011;32023;44.444;26.006;2023-01-26T10:14:19;54.42;;;22.08;;
46290;SDS011;32023;44.444;26.006;2023-01-26T10:16:58;49.20;;;21.90;;
46290;SDS011;32023;44.444;26.006;2023-01-26T10:19:33;45.33;;;21.60;;
46290;SDS011;32023;44.444;26.006;2023-01-26T10:22:12;47.35;;;20.77;;
46290;SDS011;32023;44.444;26.006;2023-01-26T10:25:02;50.38;;;21.08;;
46290;SDS011;32023;44.444;26.006;2023-01-26T10:27:41;46.70;;;19.92;;
46290;SDS011;32023;44.444;26.006;2023-01-26T10:30:17;51.10;;;21.60;;
46290;SDS011;32023;44.444;26.006;2023-01-26T10:32:45;48.35;;;21.83;;
46290;SDS011;32023;44.444;26.006;2023-01-26T10:35:23;56.28;;;24.25;;
46290;SDS011;32023;44.444;26.006;2023-01-26T10:37:50;49.00;;;21.80;;
46290;SDS011;32023;44.444;26.006;2023-01-26T10:40:17;52.00;;;22.98;;
46290;SDS011;32023;44.444;26.006;2023-01-26T10:42:52;50.38;;;21.73;;
46290;SDS011;32023;44.444;26.006;2023-01-26T10:45:24;54.47;;;23.50;;
46290;SDS011;32023;44.444;26.006;2023-01-26T10:48:12;57.33;;;25.08;;
46290;SDS011;32023;44.444;26.006;2023-01-26T10:50:55;55.40;;;25.67;;
46290;SDS011;32023;44.444;26.006;2023-01-26T10:53:40;44.95;;;21.50;;
46290;SDS011;32023;44.444;26.006;2023-01-26T10:56:13;60.47;;;25.13;;
46290;SDS011;32023;44.444;26.006;2023-01-26T10:58:48;58.53;;;23.52;;
46290;SDS011;32023;44.444;26.006;2023-01-26T11:01:19;60.30;;;24.85;;
46290;SDS011;32023;44.444;26.006;2023-01-26T11:04:10;58.17;;;26.35;;
46290;SDS011;32023;44.444;26.006;2023-01-26T11:06:40;60.17;;;25.60;;
46290;SDS011;32023;44.444;26.006;2023-01-26T11:11:39;59.35;;;25.45;;
46290;SDS011;32023;44.444;26.006;2023-01-26T11:14:11;54.08;;;23.80;;
46290;SDS011;32023;44.444;26.006;2023-01-26T11:30:18;60.53;;;25.88;;
46290;SDS011;32023;44.444;26.006;2023-01-26T11:42:29;58.92;;;26.27;;
46290;SDS011;32023;44.444;26.006;2023-01-26T11:45:35;55.90;;;24.13;;
46290;SDS011;32023;44.444;26.006;2023-01-26T12:14:43;65.20;;;26.23;;
46290;SDS011;32023;44.444;26.006;2023-01-26T12:48:58;66.68;;;26.27;;
46290;SDS011;32023;44.444;26.006;2023-01-26T12:58:55;60.13;;;26.40;;
46290;SDS011;32023;44.444;26.006;2023-01-26T13:01:35;64.32;;;26.17;;
46290;SDS011;32023;44.444;26.006;2023-01-26T13:04:10;65.50;;;26.40;;
46290;SDS011;32023;44.444;26.006;2023-01-26T13:06:40;67.88;;;27.70;;
46290;SDS011;32023;44.444;26.006;2023-01-26T13:33:45;57.10;;;25.48;;
46290;SDS011;32023;44.444;26.006;2023-01-26T13:36:14;53.90;;;26.85;;
46290;SDS011;32023;44.444;26.006;2023-01-26T13:38:57;57.83;;;26.00;;
46290;SDS011;32023;44.444;26.006;2023-01-26T13:41:42;53.63;;;25.10;;
46290;SDS011;32023;44.444;26.006;2023-01-26T13:44:18;55.22;;;24.52;;
46290;SDS011;32023;44.444;26.006;2023-01-26T13:47:08;60.92;;;26.02;;
46290;SDS011;32023;44.444;26.006;2023-01-26T13:49:47;61.03;;;26.45;;
46290;SDS011;32023;44.444;26.006;2023-01-26T13:52:15;61.40;;;27.08;;
46290;SDS011;32023;44.444;26.006;2023-01-26T13:54:44;57.70;;;25.05;;
46290;SDS011;32023;44.444;26.006;2023-01-26T13:57:20;52.88;;;24.08;;
46290;SDS011;32023;44.444;26.006;2023-01-26T13:59:54;53.97;;;24.52;;
46290;SDS011;32023;44.444;26.006;2023-01-26T14:02:26;56.42;;;25.08;;
46290;SDS011;32023;44.444;26.006;2023-01-26T14:04:56;49.53;;;23.80;;
46290;SDS011;32023;44.444;26.006;2023-01-26T14:10:04;47.97;;;23.23;;
46290;SDS011;32023;44.444;26.006;2023-01-26T14:12:40;51.33;;;23.27;;
46290;SDS011;32023;44.444;26.006;2023-01-26T14:15:24;49.60;;;22.30;;
46290;SDS011;32023;44.444;26.006;2023-01-26T14:17:57;52.85;;;23.42;;
46290;SDS011;32023;44.444;26.006;2023-01-26T14:20:37;41.58;;;20.25;;
46290;SDS011;32023;44.444;26.006;2023-01-26T14:25:47;51.17;;;23.05;;
46290;SDS011;32023;44.444;26.006;2023-01-26T14:28:29;45.53;;;21.80;;
46290;SDS011;32023;44.444;26.006;2023-01-26T14:33:48;44.20;;;21.42;;
46290;SDS011;32023;44.444;26.006;2023-01-26T14:36:20;49.50;;;21.83;;
46290;SDS011;32023;44.444;26.006;2023-01-26T14:38:47;39.63;;;19.25;;
46290;SDS011;32023;44.444;26.006;2023-01-26T14:41:31;45.42;;;22.52;;
46290;SDS011;32023;44.444;26.006;2023-01-26T14:46:38;39.83;;;18.20;;
46290;SDS011;32023;44.444;26.006;2023-01-26T14:52:36;38.60;;;17.95;;
46290;SDS011;32023;44.444;26.006;2023-01-26T14:55:13;35.38;;;16.30;;
46290;SDS011;32023;44.444;26.006;2023-01-26T14:57:47;35.42;;;18.48;;
46290;SDS011;32023;44.444;26.006;2023-01-26T15:00:34;34.38;;;17.65;;
46290;SDS011;32023;44.444;26.006;2023-01-26T15:03:14;37.50;;;18.00;;
46290;SDS011;32023;44.444;26.006;2023-01-26T15:06:03;38.13;;;17.42;;
46290;SDS011;32023;44.444;26.006;2023-01-26T15:08:37;35.50;;;17.50;;
46290;SDS011;32023;44.444;26.006;2023-01-26T15:11:05;39.30;;;19.85;;
46290;SDS011;32023;44.444;26.006;2023-01-26T15:13:53;40.58;;;20.23;;
46290;SDS011;32023;44.444;26.006;2023-01-26T15:16:23;42.90;;;20.90;;
46290;SDS011;32023;44.444;26.006;2023-01-26T15:19:04;39.30;;;19.75;;
46290;SDS011;32023;44.444;26.006;2023-01-26T15:21:35;40.45;;;21.67;;
46290;SDS011;32023;44.444;26.006;2023-01-26T15:24:11;39.70;;;20.88;;
46290;SDS011;32023;44.444;26.006;2023-01-26T15:26:39;42.28;;;20.88;;
46290;SDS011;32023;44.444;26.006;2023-01-26T15:32:31;41.97;;;20.58;;
46290;SDS011;32023;44.444;26.006;2023-01-26T15:35:06;44.60;;;23.65;;
46290;SDS011;32023;44.444;26.006;2023-01-26T15:37:44;47.70;;;24.58;;
46290;SDS011;32023;44.444;26.006;2023-01-26T15:40:14;48.60;;;23.23;;
46290;SDS011;32023;44.444;26.006;2023-01-26T15:42:43;49.20;;;22.88;;
46290;SDS011;32023;44.444;26.006;2023-01-26T15:45:19;47.83;;;24.10;;
46290;SDS011;32023;44.444;26.006;2023-01-26T15:47:50;54.10;;;24.83;;
46290;SDS011;32023;44.444;26.006;2023-01-26T15:50:17;47.97;;;24.17;;
46290;SDS011;32023;44.444;26.006;2023-01-26T15:52:43;51.33;;;23.88;;
46290;SDS011;32023;44.444;26.006;2023-01-26T15:55:20;50.30;;;23.13;;
46290;SDS011;32023;44.444;26.006;2023-01-26T15:57:56;56.55;;;25.75;;
46290;SDS011;32023;44.444;26.006;2023-01-26T16:00:22;54.90;;;26.10;;
46290;SDS011;32023;44.444;26.006;2023-01-26T16:02:49;59.80;;;28.15;;
46290;SDS011;32023;44.444;26.006;2023-01-26T16:05:17;55.25;;;26.30;;
46290;SDS011;32023;44.444;26.006;2023-01-26T16:07:47;58.95;;;27.63;;
46290;SDS011;32023;44.444;26.006;2023-01-26T16:10:16;39.85;;;19.58;;
46290;SDS011;32023;44.444;26.006;2023-01-26T16:12:43;54.30;;;26.20;;
46290;SDS011;32023;44.444;26.006;2023-01-26T16:17:49;53.13;;;25.85;;
46290;SDS011;32023;44.444;26.006;2023-01-26T16:20:15;58.38;;;26.77;;
46290;SDS011;32023;44.444;26.006;2023-01-26T16:22:42;54.90;;;25.95;;
46290;SDS011;32023;44.444;26.006;2023-01-26T16:28:14;54.40;;;27.40;;
46290;SDS011;32023;44.444;26.006;2023-01-26T16:30:42;57.65;;;27.15;;
46290;SDS011;32023;44.444;26.006;2023-01-26T16:33:14;58.83;;;25.17;;
46290;SDS011;32023;44.444;26.006;2023-01-26T16:35:48;61.10;;;28.20;;
46290;SDS011;32023;44.444;26.006;2023-01-26T16:38:15;57.95;;;28.48;;
46290;SDS011;32023;44.444;26.006;2023-01-26T16:40:45;59.80;;;29.13;;
46290;SDS011;32023;44.444;26.006;2023-01-26T16:43:20;61.25;;;28.73;;
46290;SDS011;32023;44.444;26.006;2023-01-26T16:46:22;58.47;;;28.52;;
46290;SDS011;32023;44.444;26.006;2023-01-26T16:48:49;69.43;;;30.58;;
46290;SDS011;32023;44.444;26.006;2023-01-26T16:51:29;65.07;;;30.38;;
46290;SDS011;32023;44.444;26.006;2023-01-26T16:54:06;46.05;;;23.52;;
46290;SDS011;32023;44.444;26.006;2023-01-26T16:56:35;53.38;;;28.98;;
46290;SDS011;32023;44.444;26.006;2023-01-26T16:59:04;56.00;;;27.40;;
46290;SDS011;32023;44.444;26.006;2023-01-26T17:01:34;59.67;;;28.40;;
46290;SDS011;32023;44.444;26.006;2023-01-26T17:04:35;58.58;;;29.90;;
46290;SDS011;32023;44.444;26.006;2023-01-26T17:11:25;57.65;;;28.60;;
46290;SDS011;32023;44.444;26.006;2023-01-26T17:14:10;61.35;;;29.75;;
46290;SDS011;32023;44.444;26.006;2023-01-26T17:23:25;61.50;;;28.40;;
46290;SDS011;32023;44.444;26.006;2023-01-26T17:25:58;56.17;;;27.85;;
46290;SDS011;32023;44.444;26.006;2023-01-26T17:28:26;64.68;;;29.02;;
46290;SDS011;32023;44.444;26.006;2023-01-26T17:30:54;55.83;;;26.83;;
46290;SDS011;32023;44.444;26.006;2023-01-26T17:33:20;53.38;;;26.85;;
46290;SDS011;32023;44.444;26.006;2023-01-26T17:35:50;54.97;;;26.23;;
46290;SDS011;32023;44.444;26.006;2023-01-26T17:38:26;62.30;;;30.13;;
46290;SDS011;32023;44.444;26.006;2023-01-26T17:40:53;52.20;;;27.70;;
46290;SDS011;32023;44.444;26.006;2023-01-26T17:43:20;53.90;;;27.27;;
46290;SDS011;32023;44.444;26.006;2023-01-26T17:45:47;62.85;;;28.75;;
46290;SDS011;32023;44.444;26.006;2023-01-26T17:48:16;48.40;;;24.48;;
46290;SDS011;32023;44.444;26.006;2023-01-26T17:50:50;52.95;;;28.73;;
46290;SDS011;32023;44.444;26.006;2023-01-26T17:53:18;54.88;;;28.20;;
46290;SDS011;32023;44.444;26.006;2023-01-26T17:55:48;40.05;;;20.85;;
46290;SDS011;32023;44.444;26.006;2023-01-26T17:58:21;55.08;;;27.15;;
46290;SDS011;32023;44.444;26.006;2023-01-26T18:10:28;46.90;;;23.33;;
46290;SDS011;32023;44.444;26.006;2023-01-26T18:13:09;53.17;;;26.85;;
46290;SDS011;32023;44.444;26.006;2023-01-26T18:15:38;47.90;;;23.30;;
46290;SDS011;32023;44.444;26.006;2023-01-26T18:18:04;51.10;;;25.90;;
46290;SDS011;32023;44.444;26.006;2023-01-26T18:20:31;48.28;;;23.65;;
46290;SDS011;32023;44.444;26.006;2023-01-26T18:23:02;49.00;;;25.27;;
46290;SDS011;32023;44.444;26.006;2023-01-26T18:25:35;46.60;;;24.00;;
46290;SDS011;32023;44.444;26.006;2023-01-26T18:28:02;53.35;;;26.75;;
46290;SDS011;32023;44.444;26.006;2023-01-26T18:40:37;50.78;;;25.65;;
46290;SDS011;32023;44.444;26.006;2023-01-26T18:43:04;58.72;;;28.55;;
46290;SDS011;32023;44.444;26.006;2023-01-26T18:45:30;52.00;;;24.73;;
46290;SDS011;32023;44.444;26.006;2023-01-26T18:48:04;52.92;;;26.35;;
46290;SDS011;32023;44.444;26.006;2023-01-26T18:50:30;57.15;;;25.48;;
46290;SDS011;32023;44.444;26.006;2023-01-26T18:53:02;46.65;;;22.67;;
46290;SDS011;32023;44.444;26.006;2023-01-26T18:55:31;54.22;;;25.13;;
46290;SDS011;32023;44.444;26.006;2023-01-26T18:58:22;53.85;;;26.08;;
46290;SDS011;32023;44.444;26.006;2023-01-26T19:14:46;52.67;;;26.20;;
46290;SDS011;32023;44.444;26.006;2023-01-26T19:17:16;50.72;;;26.70;;
46290;SDS011;32023;44.444;26.006;2023-01-26T19:19:45;43.90;;;23.98;;
46290;SDS011;32023;44.444;26.006;2023-01-26T19:22:14;57.97;;;27.70;;
46290;SDS011;32023;44.444;26.006;2023-01-26T19:24:42;56.38;;;28.38;;
46290;SDS011;32023;44.444;26.006;2023-01-26T19:27:17;47.33;;;27.20;;
46290;SDS011;32023;44.444;26.006;2023-01-26T19:47:32;41.28;;;22.90;;
46290;SDS011;32023;44.444;26.006;2023-01-26T19:50:13;33.55;;;19.42;;
46290;SDS011;32023;44.444;26.006;2023-01-26T19:56:15;43.53;;;23.50;;
46290;SDS011;32023;44.444;26.006;2023-01-26T19:59:19;51.45;;;26.63;;